Astrodome, Texas
Current Conditions -  °F | °C
As of 7:15 AM on Monday 22 Dec 2014 (Local Time) from KMCJ Reporting Station
NA  
Wind Chill: 59°   Ceiling: NA
Heat Index: 59°   Visibility: NA
Dew Point: 59°   Wind: 12mph
Humidity: 100%   Direction: 150°SSE
Pressure: 29.72"   Gusts: NA
Location:  29.6867°N, 95.4345°W
Report Text: KMCJ 221315Z AUTO 15010KT 15/15 A2972 RMK AO1
Loading
Personal Weather Stations






























Interactive Weather Map New forecast layout! Learn more

10-Day Weather Forecast

Advertisements
Track Severe Weather on mobile